Time;durP1;ratioP1;P1;durP2;ratioP2;P2;SDS_P1;SDS_P2;PMS_P1;PMS_P2;Temp;Humidity;BMP_temperature;BMP_pressure;BME280_temperature;BME280_humidity;BME280_pressure;Samples;Min_cycle;Max_cycle;Signal;HPM_P1;HPM_P2
2024/03/27 00:00:40;;;;;;;;;;;;;;;20.12;34.03;100340.73;102705;1291;62452;-79
2024/03/27 00:03:06;;;;;;;;;;;;;;;20.12;33.99;100330.02;102710;1291;62132;-82
2024/03/27 00:05:34;;;;;;;;;;;;;;;20.11;34.09;100329.16;102703;1292;62203;-79
2024/03/27 00:07:59;;;;;;;;;;;;;;;20.11;33.80;100336.68;102735;1294;63352;-80
2024/03/27 00:10:26;;;;;;;;;;;;;;;20.11;33.96;100335.42;102742;1291;62202;-79
2024/03/27 00:12:51;;;;;;;;;;;;;;;20.11;33.98;100336.01;102722;1297;62200;-80
2024/03/27 00:15:17;;;;;;;;;;;;;;;20.11;34.06;100334.35;102751;1292;63367;-81
2024/03/27 00:17:43;;;;;;;;;;;;;;;20.11;34.10;100336.15;102724;1291;63460;-80
2024/03/27 00:20:09;;;;;;;;;;;;;;;20.11;34.04;100332.77;102716;1292;62146;-80
2024/03/27 00:22:34;;;;;;;;;;;;;;;20.10;33.93;100331.73;102709;1294;62096;-80
2024/03/27 00:25:00;;;;;;;;;;;;;;;20.10;34.00;100333.15;102676;1292;62300;-79
2024/03/27 00:27:25;;;;;;;;;;;;;;;20.10;34.00;100334.04;102667;1292;62235;-80
2024/03/27 00:29:52;;;;;;;;;;;;;;;20.10;34.12;100334.96;102733;1291;62206;-80
2024/03/27 00:32:18;;;;;;;;;;;;;;;20.10;34.08;100332.61;102764;1292;62205;-79
2024/03/27 00:34:44;;;;;;;;;;;;;;;20.10;34.10;100328.38;102734;1292;62204;-81
2024/03/27 00:37:10;;;;;;;;;;;;;;;20.10;34.00;100330.50;102712;1294;71530;-80
2024/03/27 00:39:35;;;;;;;;;;;;;;;20.10;34.07;100333.73;102679;1292;63433;-81
2024/03/27 00:42:01;;;;;;;;;;;;;;;20.10;34.08;100332.86;102733;1292;62194;-79
2024/03/27 00:44:27;;;;;;;;;;;;;;;20.09;34.17;100326.45;102687;1292;62198;-80
2024/03/27 00:46:52;;;;;;;;;;;;;;;20.10;34.04;100326.40;102691;1291;62235;-80
2024/03/27 00:49:18;;;;;;;;;;;;;;;20.09;34.07;100324.84;102752;1292;62225;-80
2024/03/27 00:51:44;;;;;;;;;;;;;;;20.09;34.01;100323.23;102688;1292;75329;-81
2024/03/27 00:54:10;;;;;;;;;;;;;;;20.09;34.23;100317.16;102663;1295;63587;-79
2024/03/27 00:56:37;;;;;;;;;;;;;;;20.09;34.16;100319.31;102677;1292;62401;-79
2024/03/27 00:59:03;;;;;;;;;;;;;;;20.09;34.06;100315.94;102653;1295;62247;-81
2024/03/27 01:01:30;;;;;;;;;;;;;;;20.09;34.17;100317.31;102692;1291;62201;-81
2024/03/27 01:03:56;;;;;;;;;;;;;;;20.10;34.14;100318.92;102721;1291;63419;-80
2024/03/27 01:06:22;;;;;;;;;;;;;;;20.09;34.07;100313.80;102675;1291;63371;-78
2024/03/27 01:08:47;;;;;;;;;;;;;;;20.09;34.20;100310.76;102699;1297;62517;-80
2024/03/27 01:11:13;;;;;;;;;;;;;;;20.09;34.24;100310.59;102684;1296;62706;-80
2024/03/27 01:13:39;;;;;;;;;;;;;;;20.09;34.23;100311.69;102749;1294;62204;-82
2024/03/27 01:16:05;;;;;;;;;;;;;;;20.09;34.11;100315.23;102754;1291;62200;-81
2024/03/27 01:18:30;;;;;;;;;;;;;;;20.09;34.21;100311.85;102590;1295;63142;-79
2024/03/27 01:20:56;;;;;;;;;;;;;;;20.09;34.28;100307.01;102543;1295;63365;-80
2024/03/27 01:23:22;;;;;;;;;;;;;;;20.09;34.17;100308.79;102520;1298;62194;-79
2024/03/27 01:25:47;;;;;;;;;;;;;;;20.09;34.24;100310.02;102582;1294;62281;-80
2024/03/27 01:28:13;;;;;;;;;;;;;;;20.09;34.22;100306.13;102667;1297;62286;-80
2024/03/27 01:30:38;;;;;;;;;;;;;;;20.09;34.17;100302.38;102329;1300;62135;-81
2024/03/27 01:33:04;;;;;;;;;;;;;;;20.08;34.23;100306.67;102497;1295;62312;-79
2024/03/27 01:35:29;;;;;;;;;;;;;;;20.08;34.23;100297.58;102485;1300;62657;-80
2024/03/27 01:37:55;;;;;;;;;;;;;;;20.09;34.10;100301.50;102584;1295;62201;-79
2024/03/27 01:40:21;;;;;;;;;;;;;;;20.08;34.15;100302.58;102509;1294;62158;-79
2024/03/27 01:42:46;;;;;;;;;;;;;;;20.08;34.19;100298.34;102608;1294;62554;-80
2024/03/27 01:45:12;;;;;;;;;;;;;;;20.08;34.42;100295.09;102560;1297;62185;-80
2024/03/27 01:47:38;;;;;;;;;;;;;;;20.08;34.19;100296.90;102592;1294;62230;-80
2024/03/27 01:50:05;;;;;;;;;;;;;;;20.08;34.19;100294.95;102628;1292;63382;-81
2024/03/27 01:52:31;;;;;;;;;;;;;;;20.08;34.22;100296.39;102754;1291;62493;-79
2024/03/27 01:54:57;;;;;;;;;;;;;;;20.08;34.18;100297.45;102660;1292;62223;-81
2024/03/27 01:57:22;;;;;;;;;;;;;;;20.08;34.31;100297.27;102731;1294;62181;-80
2024/03/27 01:59:48;;;;;;;;;;;;;;;20.08;34.23;100292.80;102727;1292;62349;-80
2024/03/27 02:02:14;;;;;;;;;;;;;;;20.08;34.38;100298.70;102633;1292;62290;-79
2024/03/27 02:04:39;;;;;;;;;;;;;;;20.08;34.36;100295.84;102709;1292;62315;-82
2024/03/27 02:07:05;;;;;;;;;;;;;;;20.07;34.40;100296.78;102770;1294;62223;-80
2024/03/27 02:09:30;;;;;;;;;;;;;;;20.08;34.38;100297.09;102721;1292;62304;-80
2024/03/27 02:11:56;;;;;;;;;;;;;;;20.07;34.34;100296.05;102701;1294;62192;-81
2024/03/27 02:14:21;;;;;;;;;;;;;;;20.07;34.40;100296.05;102687;1292;62112;-79
2024/03/27 02:16:47;;;;;;;;;;;;;;;20.08;34.32;100295.48;102754;1294;62264;-80
2024/03/27 02:19:12;;;;;;;;;;;;;;;20.07;34.37;100295.53;102665;1291;62278;-79
2024/03/27 02:21:38;;;;;;;;;;;;;;;20.07;34.30;100288.92;102185;1296;741299;-80
2024/03/27 02:24:20;;;;;;;;;;;;;;;20.07;34.36;100285.86;102773;1291;62292;-79
2024/03/27 02:26:46;;;;;;;;;;;;;;;20.07;34.29;100278.19;102784;1292;62150;-81
2024/03/27 02:29:11;;;;;;;;;;;;;;;20.06;34.47;100278.95;102709;1292;62121;-78
2024/03/27 02:31:37;;;;;;;;;;;;;;;20.07;34.33;100273.75;102645;1292;62150;-81
2024/03/27 02:34:03;;;;;;;;;;;;;;;20.07;34.38;100281.80;102720;1295;62281;-79
2024/03/27 02:36:29;;;;;;;;;;;;;;;20.07;34.46;100278.77;102685;1292;63387;-79
2024/03/27 02:38:54;;;;;;;;;;;;;;;20.07;34.43;100281.98;102700;1297;63095;-80
2024/03/27 02:41:20;;;;;;;;;;;;;;;20.07;34.36;100285.17;102755;1292;63241;-80
2024/03/27 02:43:46;;;;;;;;;;;;;;;20.07;34.39;100285.91;102691;1294;63261;-80
2024/03/27 02:46:11;;;;;;;;;;;;;;;20.06;34.37;100289.33;102704;1292;62251;-80
2024/03/27 02:48:37;;;;;;;;;;;;;;;20.06;34.42;100283.44;102643;1292;62265;-79
2024/03/27 02:51:02;;;;;;;;;;;;;;;20.07;34.50;100289.48;102729;1292;62282;-80
2024/03/27 02:53:28;;;;;;;;;;;;;;;20.06;34.36;100282.39;102722;1291;62091;-80
2024/03/27 02:55:54;;;;;;;;;;;;;;;20.07;34.49;100283.22;102732;1294;62191;-82
2024/03/27 02:58:20;;;;;;;;;;;;;;;20.06;34.40;100286.48;102718;1292;63389;-79
2024/03/27 03:00:46;;;;;;;;;;;;;;;20.06;34.54;100280.59;102703;1292;62203;-80
2024/03/27 03:03:12;;;;;;;;;;;;;;;20.06;34.53;100277.92;102739;1292;62300;-79
2024/03/27 03:05:39;;;;;;;;;;;;;;;20.06;34.51;100277.42;102734;1297;62210;-79
2024/03/27 03:08:05;;;;;;;;;;;;;;;20.06;34.52;100275.42;102663;1292;62465;-80
2024/03/27 03:10:30;;;;;;;;;;;;;;;20.05;34.58;100271.73;102779;1292;62189;-80
2024/03/27 03:12:56;;;;;;;;;;;;;;;20.06;34.59;100276.35;102716;1294;62206;-79
2024/03/27 03:15:23;;;;;;;;;;;;;;;20.05;34.54;100271.22;102755;1292;62209;-80
2024/03/27 03:17:49;;;;;;;;;;;;;;;20.05;34.58;100274.77;102696;1292;62201;-80
2024/03/27 03:20:14;;;;;;;;;;;;;;;20.06;34.55;100272.60;102683;1297;62252;-79
2024/03/27 03:22:40;;;;;;;;;;;;;;;20.05;34.62;100274.08;102691;1295;62255;-79
2024/03/27 03:25:06;;;;;;;;;;;;;;;20.05;34.64;100275.88;102678;1292;62242;-81
2024/03/27 03:27:32;;;;;;;;;;;;;;;20.05;34.49;100277.30;102678;1293;62169;-79
2024/03/27 03:29:57;;;;;;;;;;;;;;;20.05;34.62;100285.31;102741;1294;71402;-81
2024/03/27 03:32:23;;;;;;;;;;;;;;;20.05;34.63;100289.45;102668;1292;62700;-80
2024/03/27 03:34:48;;;;;;;;;;;;;;;20.05;34.62;100287.33;102717;1292;63467;-79
2024/03/27 03:37:14;;;;;;;;;;;;;;;20.04;34.72;100287.52;102736;1293;62280;-81
2024/03/27 03:39:39;;;;;;;;;;;;;;;20.05;34.63;100288.22;102775;1294;62290;-80
2024/03/27 03:42:05;;;;;;;;;;;;;;;20.05;34.64;100288.40;102706;1292;72311;-80
2024/03/27 03:44:31;;;;;;;;;;;;;;;20.04;34.66;100290.74;102709;1295;63398;-79
2024/03/27 03:46:56;;;;;;;;;;;;;;;20.04;34.68;100287.20;102694;1295;63435;-82
2024/03/27 03:49:22;;;;;;;;;;;;;;;20.04;34.62;100288.63;102747;1292;62212;-79
2024/03/27 03:51:47;;;;;;;;;;;;;;;20.04;34.72;100286.66;102757;1294;62118;-80
2024/03/27 03:54:13;;;;;;;;;;;;;;;20.04;34.79;100290.41;102731;1291;73447;-79
2024/03/27 03:56:38;;;;;;;;;;;;;;;20.04;34.66;100289.17;102727;1291;62264;-81
2024/03/27 03:59:05;;;;;;;;;;;;;;;20.03;34.58;100287.77;102637;1295;63589;-80
2024/03/27 04:01:31;;;;;;;;;;;;;;;20.03;34.77;100284.77;102713;1292;62459;-78
2024/03/27 04:03:57;;;;;;;;;;;;;;;20.04;34.78;100284.71;102693;1297;62526;-81
2024/03/27 04:06:23;;;;;;;;;;;;;;;20.03;34.75;100284.02;102582;1293;62202;-79
2024/03/27 04:08:49;;;;;;;;;;;;;;;20.03;34.88;100284.23;102691;1297;62223;-81
2024/03/27 04:11:15;;;;;;;;;;;;;;;20.03;34.81;100285.16;102702;1291;63402;-79
2024/03/27 04:13:40;;;;;;;;;;;;;;;20.03;34.89;100285.14;102547;1295;62165;-80
2024/03/27 04:16:07;;;;;;;;;;;;;;;20.02;34.75;100284.27;102659;1295;63464;-82
2024/03/27 04:18:33;;;;;;;;;;;;;;;20.02;34.77;100278.38;102762;1293;62123;-80
2024/03/27 04:20:58;;;;;;;;;;;;;;;20.03;34.93;100276.05;102603;1298;62162;-79
2024/03/27 04:23:24;;;;;;;;;;;;;;;20.02;34.96;100272.32;102677;1292;62125;-78
2024/03/27 04:25:50;;;;;;;;;;;;;;;20.02;34.89;100272.87;102630;1292;63168;-81
2024/03/27 04:28:15;;;;;;;;;;;;;;;20.02;34.85;100274.83;102709;1292;62206;-79
2024/03/27 04:30:44;;;;;;;;;;;;;;;20.02;34.95;100281.81;102698;1291;75122;-79
2024/03/27 04:33:11;;;;;;;;;;;;;;;20.02;34.99;100280.55;102709;1293;62402;-79
2024/03/27 04:35:37;;;;;;;;;;;;;;;20.02;34.81;100285.23;102892;1293;63378;-80
2024/03/27 04:38:03;;;;;;;;;;;;;;;20.01;34.85;100282.95;102696;1295;62540;-80
2024/03/27 04:40:28;;;;;;;;;;;;;;;20.01;34.91;100281.52;103062;1297;62285;-81
2024/03/27 04:42:54;;;;;;;;;;;;;;;20.01;35.03;100283.86;102689;1297;62214;-80
2024/03/27 04:45:21;;;;;;;;;;;;;;;20.01;34.97;100281.92;102717;1296;62146;-80
2024/03/27 04:47:47;;;;;;;;;;;;;;;20.00;34.99;100282.67;102686;1292;62201;-81
2024/03/27 04:50:13;;;;;;;;;;;;;;;19.99;34.90;100282.59;102686;1292;63349;-80
2024/03/27 04:52:38;;;;;;;;;;;;;;;19.99;34.80;100285.29;102657;1297;62270;-81
2024/03/27 04:55:05;;;;;;;;;;;;;;;19.98;34.96;100280.67;102720;1297;62216;-80
2024/03/27 04:57:31;;;;;;;;;;;;;;;19.97;34.97;100280.55;102636;1293;62221;-80
2024/03/27 04:59:56;;;;;;;;;;;;;;;19.98;34.88;100283.60;103146;1292;62221;-80
2024/03/27 05:02:22;;;;;;;;;;;;;;;19.97;34.77;100283.84;103151;1295;62217;-81
2024/03/27 05:04:48;;;;;;;;;;;;;;;19.96;34.74;100282.25;102966;1291;76337;-80
2024/03/27 05:07:16;;;;;;;;;;;;;;;19.96;34.78;100286.02;102806;1297;62026;-80
2024/03/27 05:09:42;;;;;;;;;;;;;;;19.96;34.57;100283.17;102816;1297;62208;-80
2024/03/27 05:12:07;;;;;;;;;;;;;;;19.95;34.75;100284.63;102881;1292;62355;-80
2024/03/27 05:14:33;;;;;;;;;;;;;;;19.95;34.77;100289.14;102789;1295;62208;-79
2024/03/27 05:16:59;;;;;;;;;;;;;;;19.95;34.65;100286.67;102954;1292;63354;-81
2024/03/27 05:19:25;;;;;;;;;;;;;;;19.94;34.71;100285.44;102890;1293;62278;-79
2024/03/27 05:21:51;;;;;;;;;;;;;;;19.94;34.55;100282.61;102817;1298;63462;-81
2024/03/27 05:24:16;;;;;;;;;;;;;;;19.93;34.72;100282.99;102685;1292;62246;-82
2024/03/27 05:26:42;;;;;;;;;;;;;;;19.93;34.54;100282.48;102797;1293;62572;-79
2024/03/27 05:29:08;;;;;;;;;;;;;;;19.92;34.57;100279.48;102762;1294;62283;-82
2024/03/27 05:31:51;;;;;;;;;;;;;;;19.92;34.60;100279.52;102867;1292;63239;-80
2024/03/27 05:34:17;;;;;;;;;;;;;;;19.90;34.50;100285.51;102971;1297;73562;-81
2024/03/27 05:36:42;;;;;;;;;;;;;;;19.89;34.60;100286.51;103101;1295;62241;-79
2024/03/27 05:39:10;;;;;;;;;;;;;;;19.88;34.52;100291.63;103326;1296;62126;-79
2024/03/27 05:41:37;;;;;;;;;;;;;;;19.86;34.53;100294.77;103186;1298;62097;-80
2024/03/27 05:44:03;;;;;;;;;;;;;;;19.84;34.56;100296.02;102891;1291;62336;-79
2024/03/27 05:46:29;;;;;;;;;;;;;;;19.82;34.44;100301.33;103284;1292;62077;-79
2024/03/27 05:48:55;;;;;;;;;;;;;;;19.80;34.56;100303.63;103344;1291;63468;-80
2024/03/27 05:51:24;;;;;;;;;;;;;;;19.77;34.48;100305.42;103608;1296;62073;-80
2024/03/27 05:53:50;;;;;;;;;;;;;;;19.73;34.46;100304.45;103806;1295;73508;-79
2024/03/27 05:56:15;;;;;;;;;;;;;;;19.69;34.48;100306.36;103951;1295;62107;-81
2024/03/27 05:58:41;;;;;;;;;;;;;;;19.66;34.53;100305.00;103853;1294;62089;-80
2024/03/27 06:01:06;;;;;;;;;;;;;;;19.64;34.45;100309.25;104430;1293;62121;-79
2024/03/27 06:03:32;;;;;;;;;;;;;;;19.61;34.48;100310.71;104695;1291;62095;-80
2024/03/27 06:05:57;;;;;;;;;;;;;;;19.59;34.78;100313.52;104286;1292;73788;-79
2024/03/27 06:08:23;;;;;;;;;;;;;;;19.57;34.63;100317.39;104425;1295;62127;-79
2024/03/27 06:10:48;;;;;;;;;;;;;;;19.56;34.62;100314.73;104618;1296;62166;-80
2024/03/27 06:13:14;;;;;;;;;;;;;;;19.55;34.58;100316.65;104476;1296;62140;-80
2024/03/27 06:15:40;;;;;;;;;;;;;;;19.53;34.64;100316.62;104420;1296;62000;-80
2024/03/27 06:18:06;;;;;;;;;;;;;;;19.52;34.52;100316.17;104466;1295;62184;-81
2024/03/27 06:20:32;;;;;;;;;;;;;;;19.50;34.73;100313.98;104458;1292;62098;-81
2024/03/27 06:22:58;;;;;;;;;;;;;;;19.49;34.68;100316.55;104596;1293;61768;-80
2024/03/27 06:25:24;;;;;;;;;;;;;;;19.47;34.98;100320.40;104505;1292;62210;-80
2024/03/27 06:27:50;;;;;;;;;;;;;;;19.46;34.93;100317.15;104612;1293;62223;-80
2024/03/27 06:30:15;;;;;;;;;;;;;;;19.43;35.13;100315.72;104708;1291;62084;-81
2024/03/27 06:32:42;;;;;;;;;;;;;;;19.41;35.17;100318.90;104671;1291;62118;-80
2024/03/27 06:35:08;;;;;;;;;;;;;;;19.39;35.26;100317.40;104526;1294;62003;-80
2024/03/27 06:37:34;;;;;;;;;;;;;;;19.38;35.42;100316.98;104444;1295;62180;-80
2024/03/27 06:39:59;;;;;;;;;;;;;;;19.35;35.40;100310.58;104366;1291;60474;-80
2024/03/27 06:42:25;;;;;;;;;;;;;;;19.34;35.58;100314.75;104365;1291;62274;-80
2024/03/27 06:44:51;;;;;;;;;;;;;;;19.33;35.59;100315.58;104582;1291;61509;-79
2024/03/27 06:47:19;;;;;;;;;;;;;;;19.32;35.50;100321.84;104657;1290;62108;-79
2024/03/27 06:49:45;;;;;;;;;;;;;;;19.28;35.65;100319.44;104271;1291;61868;-79
2024/03/27 06:52:10;;;;;;;;;;;;;;;19.24;35.38;100320.08;104574;1292;65243;-80
2024/03/27 06:54:36;;;;;;;;;;;;;;;19.11;35.58;100322.45;104830;1295;62088;-80
2024/03/27 06:57:01;;;;;;;;;;;;;;;18.99;35.66;100326.87;105049;1294;60085;-81
2024/03/27 06:59:27;;;;;;;;;;;;;;;19.00;35.87;100332.10;104719;1295;62206;-80
2024/03/27 07:01:52;;;;;;;;;;;;;;;19.08;35.92;100328.04;104722;1292;59983;-78
2024/03/27 07:04:18;;;;;;;;;;;;;;;19.15;36.00;100329.65;104073;1294;62181;-78
2024/03/27 07:06:43;;;;;;;;;;;;;;;19.21;35.97;100330.48;104407;1292;62200;-79
2024/03/27 07:09:09;;;;;;;;;;;;;;;19.26;36.04;100327.63;104355;1291;62146;-78
2024/03/27 07:11:35;;;;;;;;;;;;;;;19.31;36.04;100329.40;104255;1291;62207;-79
2024/03/27 07:14:01;;;;;;;;;;;;;;;19.35;36.13;100330.92;104284;1293;62152;-78
2024/03/27 07:16:26;;;;;;;;;;;;;;;19.38;36.14;100332.48;104276;1292;74911;-78
2024/03/27 07:18:53;;;;;;;;;;;;;;;19.41;36.09;100334.57;104349;1297;62119;-81
2024/03/27 07:21:19;;;;;;;;;;;;;;;19.44;36.02;100330.45;104179;1291;62146;-79
2024/03/27 07:23:45;;;;;;;;;;;;;;;19.47;36.20;100330.05;104298;1291;61971;-79
2024/03/27 07:26:11;;;;;;;;;;;;;;;19.50;36.18;100331.61;104368;1291;62203;-79
2024/03/27 07:28:37;;;;;;;;;;;;;;;19.53;36.19;100332.86;104172;1291;62127;-82
2024/03/27 07:31:02;;;;;;;;;;;;;;;19.55;36.21;100333.77;104263;1291;62116;-80
2024/03/27 07:33:28;;;;;;;;;;;;;;;19.58;36.16;100333.92;104189;1291;62071;-80
2024/03/27 07:35:54;;;;;;;;;;;;;;;19.60;36.39;100336.81;104318;1292;62143;-80
2024/03/27 07:38:20;;;;;;;;;;;;;;;19.61;36.45;100334.77;104475;1292;62183;-80
2024/03/27 07:40:46;;;;;;;;;;;;;;;19.63;36.30;100334.30;104299;1291;62003;-79
2024/03/27 07:43:13;;;;;;;;;;;;;;;19.64;36.34;100336.54;104227;1290;62072;-80
2024/03/27 07:45:38;;;;;;;;;;;;;;;19.66;36.43;100340.16;104315;1291;61425;-80
2024/03/27 07:48:04;;;;;;;;;;;;;;;19.67;36.57;100345.22;104286;1294;60935;-79
2024/03/27 07:50:30;;;;;;;;;;;;;;;19.69;36.36;100346.38;104440;1292;62130;-81
2024/03/27 07:52:56;;;;;;;;;;;;;;;19.68;36.39;100341.41;104671;1292;63134;-82
2024/03/27 07:55:21;;;;;;;;;;;;;;;19.65;36.41;100338.42;104659;1296;60108;-81
2024/03/27 07:57:47;;;;;;;;;;;;;;;19.53;36.31;100338.20;104782;1294;62140;-80
2024/03/27 08:00:13;;;;;;;;;;;;;;;19.49;36.52;100338.13;104892;1292;60108;-81
2024/03/27 08:02:38;;;;;;;;;;;;;;;19.50;36.54;100336.27;104999;1292;60705;-79
2024/03/27 08:05:05;;;;;;;;;;;;;;;19.52;36.54;100327.37;104730;1291;60570;-79
2024/03/27 08:07:31;;;;;;;;;;;;;;;19.55;36.41;100329.27;104775;1291;62109;-79
2024/03/27 08:09:57;;;;;;;;;;;;;;;19.58;36.58;100328.53;105010;1292;61124;-79
2024/03/27 08:12:23;;;;;;;;;;;;;;;19.62;36.68;100332.79;104880;1291;62116;-78
2024/03/27 08:14:49;;;;;;;;;;;;;;;19.64;36.63;100331.52;104812;1291;60324;-79
2024/03/27 08:17:14;;;;;;;;;;;;;;;19.67;36.82;100329.71;104777;1290;62191;-78
2024/03/27 08:19:41;;;;;;;;;;;;;;;19.69;36.75;100332.77;104685;1291;60506;-79
2024/03/27 08:22:07;;;;;;;;;;;;;;;19.71;36.71;100335.28;104574;1291;62078;-80
2024/03/27 08:24:33;;;;;;;;;;;;;;;19.73;36.76;100337.48;104413;1294;62176;-79
2024/03/27 08:26:58;;;;;;;;;;;;;;;19.75;36.84;100338.04;104484;1291;62203;-79
2024/03/27 08:29:24;;;;;;;;;;;;;;;19.77;36.77;100332.17;104459;1291;62088;-79
2024/03/27 08:31:49;;;;;;;;;;;;;;;19.78;36.70;100321.94;104247;1292;62243;-79
2024/03/27 08:34:15;;;;;;;;;;;;;;;19.79;36.79;100315.25;104257;1291;72576;-80
2024/03/27 08:36:40;;;;;;;;;;;;;;;19.80;36.74;100307.67;104608;1296;62126;-80
2024/03/27 08:39:07;;;;;;;;;;;;;;;19.81;36.81;100304.96;104422;1292;62136;-79
2024/03/27 08:41:33;;;;;;;;;;;;;;;19.82;36.73;100304.91;104323;1292;60123;-80
2024/03/27 08:43:59;;;;;;;;;;;;;;;19.84;36.93;100308.35;104219;1291;60424;-79
2024/03/27 08:46:26;;;;;;;;;;;;;;;19.85;36.80;100313.98;104274;1291;62145;-80
2024/03/27 08:48:52;;;;;;;;;;;;;;;19.86;36.78;100313.70;104427;1292;60176;-80
2024/03/27 08:51:18;;;;;;;;;;;;;;;19.87;36.87;100315.93;104501;1291;62216;-79
2024/03/27 08:53:43;;;;;;;;;;;;;;;19.88;36.90;100310.73;104634;1293;62191;-78
2024/03/27 08:56:09;;;;;;;;;;;;;;;19.85;36.92;100309.81;104534;1294;75325;-80
2024/03/27 08:58:35;;;;;;;;;;;;;;;19.83;37.05;100313.77;104405;1291;60291;-79
2024/03/27 09:01:01;;;;;;;;;;;;;;;19.85;37.44;100313.58;104571;1291;62198;-79
2024/03/27 09:03:27;;;;;;;;;;;;;;;19.82;37.47;100305.81;104579;1291;62007;-78
2024/03/27 09:05:53;;;;;;;;;;;;;;;19.80;37.61;100307.70;104500;1294;61331;-80
2024/03/27 09:08:19;;;;;;;;;;;;;;;19.81;37.62;100302.84;104407;1292;62194;-80
2024/03/27 09:10:44;;;;;;;;;;;;;;;19.82;37.74;100298.50;104723;1292;61881;-80
2024/03/27 09:13:10;;;;;;;;;;;;;;;19.82;37.79;100295.11;104611;1291;62392;-80
2024/03/27 09:15:36;;;;;;;;;;;;;;;19.83;37.63;100297.67;104570;1296;62207;-79
2024/03/27 09:18:01;;;;;;;;;;;;;;;19.84;37.71;100292.98;104480;1296;62061;-79
2024/03/27 09:20:29;;;;;;;;;;;;;;;19.85;37.76;100299.11;104455;1294;61969;-80
2024/03/27 09:22:54;;;;;;;;;;;;;;;19.85;38.01;100293.75;104482;1292;62370;-80
2024/03/27 09:25:20;;;;;;;;;;;;;;;19.84;37.72;100296.56;104546;1292;62066;-81
2024/03/27 09:27:45;;;;;;;;;;;;;;;19.84;37.85;100297.42;104554;1292;61423;-81
2024/03/27 09:30:11;;;;;;;;;;;;;;;19.83;37.66;100301.27;104791;1291;59998;-80
2024/03/27 09:32:37;;;;;;;;;;;;;;;19.83;37.83;100296.61;104678;1291;62105;-81
2024/03/27 09:35:04;;;;;;;;;;;;;;;19.83;37.69;100295.74;104746;1291;62169;-80
2024/03/27 09:37:29;;;;;;;;;;;;;;;19.83;37.68;100296.04;104651;1294;62145;-80
2024/03/27 09:39:55;;;;;;;;;;;;;;;19.84;37.55;100293.15;104715;1292;62251;-80
2024/03/27 09:42:20;;;;;;;;;;;;;;;19.85;37.55;100297.39;104614;1291;62081;-81
2024/03/27 09:44:46;;;;;;;;;;;;;;;19.84;37.62;100297.77;104677;1291;62136;-80
2024/03/27 09:47:11;;;;;;;;;;;;;;;19.85;37.40;100295.24;104820;1291;59552;-80
2024/03/27 09:49:38;;;;;;;;;;;;;;;19.82;37.32;100295.92;104857;1292;61916;-80
2024/03/27 09:52:03;;;;;;;;;;;;;;;19.76;37.40;100302.28;105095;1291;60420;-79
2024/03/27 09:54:29;;;;;;;;;;;;;;;19.68;37.18;100303.21;105088;1291;60199;-81
2024/03/27 09:56:54;;;;;;;;;;;;;;;19.44;37.28;100301.69;105037;1291;62724;-83
2024/03/27 09:59:20;;;;;;;;;;;;;;;19.43;37.53;100303.19;105222;1291;60868;-80
2024/03/27 10:01:56;;;;;;;;;;;;;;;19.31;37.39;100308.55;105058;1295;62086;-80
2024/03/27 10:04:21;;;;;;;;;;;;;;;19.17;37.60;100309.56;105056;1292;72553;-81
2024/03/27 10:06:47;;;;;;;;;;;;;;;19.07;37.87;100307.20;105070;1290;62104;-80
2024/03/27 10:09:12;;;;;;;;;;;;;;;18.87;37.85;100303.75;105026;1291;62064;-83
2024/03/27 10:11:39;;;;;;;;;;;;;;;18.83;38.21;100299.77;105309;1291;62162;-81
2024/03/27 10:14:04;;;;;;;;;;;;;;;18.79;38.37;100297.52;105388;1290;62060;-82
2024/03/27 10:16:30;;;;;;;;;;;;;;;18.73;38.04;100299.74;105261;1292;60529;-80
2024/03/27 10:18:55;;;;;;;;;;;;;;;18.67;38.36;100300.48;105300;1291;75410;-81
2024/03/27 10:21:21;;;;;;;;;;;;;;;18.72;38.23;100294.44;104998;1291;60910;-80
2024/03/27 10:23:46;;;;;;;;;;;;;;;18.81;38.28;100292.44;105056;1291;60474;-80
2024/03/27 10:26:12;;;;;;;;;;;;;;;18.92;38.25;100295.96;104955;1292;62195;-80
2024/03/27 10:28:39;;;;;;;;;;;;;;;19.01;38.18;100296.92;104970;1291;59951;-80
2024/03/27 10:31:04;;;;;;;;;;;;;;;19.07;38.25;100295.04;104901;1292;75286;-81
2024/03/27 10:33:30;;;;;;;;;;;;;;;19.15;38.27;100293.06;104918;1292;60136;-79
2024/03/27 10:35:57;;;;;;;;;;;;;;;19.21;38.11;100287.52;104915;1294;62078;-81
2024/03/27 10:38:23;;;;;;;;;;;;;;;19.24;38.01;100285.66;104933;1291;62274;-82
2024/03/27 10:40:52;;;;;;;;;;;;;;;19.30;38.08;100292.78;104875;1294;61112;-80
2024/03/27 10:43:23;;;;;;;;;;;;;;;19.34;37.97;100293.54;105016;1291;59852;-80
2024/03/27 10:45:49;;;;;;;;;;;;;;;19.38;37.98;100292.84;104735;1291;61138;-80
2024/03/27 10:48:15;;;;;;;;;;;;;;;19.41;37.85;100290.72;104534;1291;62153;-80
2024/03/27 10:50:40;;;;;;;;;;;;;;;19.41;37.74;100285.86;104776;1291;62124;-79
2024/03/27 10:53:07;;;;;;;;;;;;;;;19.41;37.73;100283.23;104965;1291;60594;-80
2024/03/27 10:55:36;;;;;;;;;;;;;;;19.20;37.51;100275.40;104757;1291;62023;-81
2024/03/27 10:58:03;;;;;;;;;;;;;;;19.06;37.74;100263.72;104787;1291;72199;-79
2024/03/27 11:00:28;;;;;;;;;;;;;;;19.09;37.67;100265.69;104885;1290;60240;-80
2024/03/27 11:02:54;;;;;;;;;;;;;;;18.99;37.38;100265.30;105099;1291;60275;-81
2024/03/27 11:05:19;;;;;;;;;;;;;;;18.81;37.47;100259.04;105025;1291;61455;-81
2024/03/27 11:07:45;;;;;;;;;;;;;;;18.77;37.65;100252.38;104961;1291;60555;-82
2024/03/27 11:10:20;;;;;;;;;;;;;;;18.82;37.69;100245.79;104819;1291;61072;-82
2024/03/27 11:12:48;;;;;;;;;;;;;;;18.85;37.50;100246.32;104887;1290;60754;-80
2024/03/27 11:15:14;;;;;;;;;;;;;;;18.75;37.44;100239.86;104968;1290;61427;-81
2024/03/27 11:17:39;;;;;;;;;;;;;;;18.74;37.70;100236.67;105111;1291;62135;-81
2024/03/27 11:20:05;;;;;;;;;;;;;;;18.78;37.52;100236.61;105024;1291;62235;-82
2024/03/27 11:22:31;;;;;;;;;;;;;;;18.81;37.72;100235.16;104999;1292;63279;-82
2024/03/27 11:24:57;;;;;;;;;;;;;;;18.85;37.86;100235.92;104824;1291;62131;-81
2024/03/27 11:27:26;;;;;;;;;;;;;;;18.93;37.99;100237.38;104897;1291;61554;-82
2024/03/27 11:29:59;;;;;;;;;;;;;;;19.00;37.89;100231.23;104379;1291;74453;-81
2024/03/27 11:32:31;;;;;;;;;;;;;;;18.95;37.79;100226.72;104803;1291;62214;-82
2024/03/27 11:34:57;;;;;;;;;;;;;;;18.91;37.83;100230.21;104510;1291;62184;-81
2024/03/27 11:37:22;;;;;;;;;;;;;;;18.96;37.97;100227.02;104628;1295;60819;-81
2024/03/27 11:39:48;;;;;;;;;;;;;;;19.00;37.95;100234.56;104380;1291;62501;-81
2024/03/27 11:42:13;;;;;;;;;;;;;;;19.01;37.70;100235.58;104077;1291;62020;-79
2024/03/27 11:44:39;;;;;;;;;;;;;;;19.01;37.95;100236.30;104092;1291;62192;-81
2024/03/27 11:47:04;;;;;;;;;;;;;;;18.96;37.93;100237.35;104169;1291;62181;-81
2024/03/27 11:49:30;;;;;;;;;;;;;;;18.99;38.06;100239.68;103980;1290;62034;-81
2024/03/27 11:51:55;;;;;;;;;;;;;;;19.05;38.19;100239.42;104248;1294;62062;-80
2024/03/27 11:54:21;;;;;;;;;;;;;;;19.11;38.17;100240.72;104420;1292;62027;-81
2024/03/27 11:56:47;;;;;;;;;;;;;;;19.19;38.26;100240.20;104506;1291;60940;-81
2024/03/27 11:59:13;;;;;;;;;;;;;;;19.26;38.57;100240.23;104354;1291;61170;-80
2024/03/27 12:01:38;;;;;;;;;;;;;;;19.30;38.51;100244.35;104167;1291;62155;-80
2024/03/27 12:04:04;;;;;;;;;;;;;;;19.32;38.48;100244.63;104669;1291;62185;-81
2024/03/27 12:06:29;;;;;;;;;;;;;;;19.22;38.19;100241.55;104689;1291;62130;-80
2024/03/27 12:08:55;;;;;;;;;;;;;;;19.13;38.16;100240.93;104351;1292;64464;-80
2024/03/27 12:11:21;;;;;;;;;;;;;;;19.09;38.25;100240.71;104807;1291;62098;-81
2024/03/27 12:13:47;;;;;;;;;;;;;;;19.04;38.17;100239.99;104721;1291;61310;-81
2024/03/27 12:16:12;;;;;;;;;;;;;;;19.04;38.36;100236.44;104407;1291;62137;-81
2024/03/27 12:18:42;;;;;;;;;;;;;;;19.12;38.42;100234.27;104482;1291;62292;-80